Time,TemperatureF,DewpointF,PressureIn,WindDirection,WindDirectionDegrees,WindSpeedMPH,WindSpeedGustMPH,Humidity,HourlyPrecipIn,Conditions,Clouds,dailyrainin,SoftwareType,DateUTC
2013-05-24 00:12:00,56.9,48.0,25.80,South,188,25.0,34.0,73,0.00,,,0.00,weatherlink.com 1.10,2013-05-24 06:12:00,
2013-05-24 00:27:00,56.6,49.0,25.80,SSE,148,22.0,38.0,75,0.00,,,0.00,weatherlink.com 1.10,2013-05-24 06:27:00,
2013-05-24 00:42:00,56.2,49.0,25.80,SSW,206,32.0,35.0,76,0.00,,,0.00,weatherlink.com 1.10,2013-05-24 06:42:00,
2013-05-24 00:57:00,55.9,49.0,25.79,SSW,210,18.0,34.0,77,0.00,,,0.00,weatherlink.com 1.10,2013-05-24 06:57:00,
2013-05-24 01:12:00,55.8,49.0,25.79,SSW,210,29.0,35.0,78,0.00,,,0.00,weatherlink.com 1.10,2013-05-24 07:12:00,
2013-05-24 01:27:00,55.6,49.0,25.78,SSW,212,21.0,30.0,79,0.00,,,0.00,weatherlink.com 1.10,2013-05-24 07:27:00,
2013-05-24 01:42:00,55.6,50.0,25.78,SW,235,20.0,31.0,80,0.00,,,0.00,weatherlink.com 1.10,2013-05-24 07:42:00,
2013-05-24 01:57:00,55.6,50.0,25.78,SSE,158,26.0,33.0,80,0.00,,,0.00,weatherlink.com 1.10,2013-05-24 07:57:00,
2013-05-24 02:12:00,55.5,49.0,25.77,SSW,198,18.0,31.0,80,0.00,,,0.00,weatherlink.com 1.10,2013-05-24 08:12:00,
2013-05-24 02:27:00,55.1,50.0,25.77,SW,217,21.0,32.0,82,0.00,,,0.00,weatherlink.com 1.10,2013-05-24 08:27:00,
2013-05-24 02:42:00,54.6,51.0,25.77,South,170,24.0,34.0,86,0.00,,,0.00,weatherlink.com 1.10,2013-05-24 08:42:00,
2013-05-24 02:57:00,54.3,51.0,25.77,WSW,240,22.0,33.0,87,0.00,,,0.00,weatherlink.com 1.10,2013-05-24 08:57:00,
2013-05-24 03:12:00,54.3,51.0,25.77,SW,222,16.0,30.0,87,0.00,,,0.00,weatherlink.com 1.10,2013-05-24 09:12:00,
2013-05-24 03:27:00,54.4,51.0,25.76,SSW,195,19.0,30.0,87,0.00,,,0.00,weatherlink.com 1.10,2013-05-24 09:27:00,
2013-05-24 03:42:00,54.6,51.0,25.76,SSW,210,25.0,31.0,87,0.00,,,0.00,weatherlink.com 1.10,2013-05-24 09:42:00,
2013-05-24 03:57:00,54.6,51.0,25.75,SW,215,21.0,35.0,87,0.00,,,0.00,weatherlink.com 1.10,2013-05-24 09:57:00,
2013-05-24 04:12:00,54.3,51.0,25.75,SSW,204,21.0,33.0,89,0.00,,,0.00,weatherlink.com 1.10,2013-05-24 10:12:00,
2013-05-24 04:27:00,54.1,51.0,25.74,WSW,238,21.0,28.0,90,0.00,,,0.00,weatherlink.com 1.10,2013-05-24 10:27:00,
2013-05-24 04:42:00,53.9,51.0,25.74,SW,226,18.0,29.0,91,0.00,,,0.00,weatherlink.com 1.10,2013-05-24 10:42:00,
2013-05-24 04:57:00,53.6,51.0,25.74,SW,226,23.0,-999.0,92,-99.99,,,0.00,weatherlink.com 1.10,2013-05-24 10:57:00,
2013-05-24 05:12:00,53.4,52.0,25.74,South,191,27.0,34.0,93,0.00,,,0.00,weatherlink.com 1.10,2013-05-24 11:12:00,
2013-05-24 05:27:00,53.3,52.0,25.73,SW,225,26.0,33.0,94,0.00,,,0.00,weatherlink.com 1.10,2013-05-24 11:27:00,
2013-05-24 05:43:00,53.2,52.0,25.73,SSW,194,21.0,37.0,95,0.00,,,0.00,weatherlink.com 1.10,2013-05-24 11:43:00,
2013-05-24 05:58:00,53.2,52.0,25.73,South,188,20.0,31.0,96,0.00,,,0.00,weatherlink.com 1.10,2013-05-24 11:58:00,
2013-05-24 06:13:00,53.4,52.0,25.73,SW,218,23.0,28.0,96,0.00,,,0.00,weatherlink.com 1.10,2013-05-24 12:13:00,
2013-05-24 06:28:00,53.8,52.0,25.73,SSW,210,15.0,30.0,95,0.00,,,0.00,weatherlink.com 1.10,2013-05-24 12:28:00,
2013-05-24 06:43:00,54.1,53.0,25.73,SSW,204,17.0,29.0,95,0.00,,,0.00,weatherlink.com 1.10,2013-05-24 12:43:00,
2013-05-24 06:58:00,54.3,53.0,25.74,SW,224,24.0,29.0,95,0.00,,,0.00,weatherlink.com 1.10,2013-05-24 12:58:00,
2013-05-24 07:13:00,54.5,53.0,25.74,SSW,201,23.0,30.0,95,0.00,,,0.00,weatherlink.com 1.10,2013-05-24 13:13:00,
2013-05-24 07:28:00,54.7,53.0,25.74,SSE,160,16.0,26.0,95,0.00,,,0.00,weatherlink.com 1.10,2013-05-24 13:28:00,
2013-05-24 07:43:00,54.9,53.0,25.74,SW,223,16.0,27.0,94,0.00,,,0.00,weatherlink.com 1.10,2013-05-24 13:43:00,
2013-05-24 07:58:00,55.3,54.0,25.74,SSE,161,16.0,29.0,94,0.00,,,0.00,weatherlink.com 1.10,2013-05-24 13:58:00,
2013-05-24 08:13:00,55.6,54.0,25.77,SW,217,18.0,29.0,93,0.00,,,0.00,weatherlink.com 1.10,2013-05-24 14:13:00,
2013-05-24 08:28:00,56.0,54.0,25.77,WSW,248,9.0,21.0,93,0.00,,,0.00,weatherlink.com 1.10,2013-05-24 14:28:00,
2013-05-24 08:43:00,56.5,54.0,25.77,South,189,11.0,25.0,92,0.00,,,0.00,weatherlink.com 1.10,2013-05-24 14:43:00,
2013-05-24 08:58:00,56.8,54.0,25.77,South,170,8.0,25.0,91,0.00,,,0.00,weatherlink.com 1.10,2013-05-24 14:58:00,
2013-05-24 09:13:00,57.3,55.0,25.76,NNW,347,11.0,24.0,91,0.00,,,0.00,weatherlink.com 1.10,2013-05-24 15:13:00,
2013-05-24 09:28:00,57.7,55.0,25.77,South,183,12.0,22.0,90,0.00,,,0.00,weatherlink.com 1.10,2013-05-24 15:28:00,
2013-05-24 09:43:00,58.3,55.0,25.77,SW,229,12.0,27.0,89,0.00,,,0.00,weatherlink.com 1.10,2013-05-24 15:43:00,
2013-05-24 09:58:00,59.4,56.0,25.76,SSW,210,18.0,24.0,87,0.00,,,0.00,weatherlink.com 1.10,2013-05-24 15:58:00,
2013-05-24 10:13:00,60.5,56.0,25.76,SSW,199,13.0,26.0,86,0.00,,,0.00,weatherlink.com 1.10,2013-05-24 16:13:00,
2013-05-24 10:28:00,60.7,56.0,25.77,SW,218,22.0,31.0,84,0.00,,,0.00,weatherlink.com 1.10,2013-05-24 16:28:00,
2013-05-24 10:43:00,62.5,56.0,25.76,WNW,297,11.0,27.0,80,0.00,,,0.00,weatherlink.com 1.10,2013-05-24 16:43:00,
2013-05-24 10:58:00,63.4,57.0,25.76,SE,139,8.0,25.0,79,0.00,,,0.00,weatherlink.com 1.10,2013-05-24 16:58:00,
2013-05-24 11:13:00,65.4,58.0,25.76,WSW,257,12.0,27.0,76,0.00,,,0.00,weatherlink.com 1.10,2013-05-24 17:13:00,
2013-05-24 11:28:00,66.6,57.0,25.76,SSW,194,10.0,28.0,72,0.00,,,0.00,weatherlink.com 1.10,2013-05-24 17:28:00,
2013-05-24 11:43:00,68.1,57.0,25.75,SSW,201,8.0,26.0,67,0.00,,,0.00,weatherlink.com 1.10,2013-05-24 17:43:00,
2013-05-24 11:58:00,68.8,56.0,25.75,SSW,198,13.0,16.0,65,0.00,,,0.00,weatherlink.com 1.10,2013-05-24 17:58:00,
2013-05-24 12:13:00,70.2,56.0,25.75,South,176,8.0,17.0,60,0.00,,,0.00,weatherlink.com 1.10,2013-05-24 18:13:00,
2013-05-24 12:29:00,71.0,57.0,25.75,WSW,240,9.0,17.0,61,0.00,,,0.00,weatherlink.com 1.10,2013-05-24 18:29:00,
2013-05-24 12:44:00,71.8,57.0,25.75,SSW,201,11.0,16.0,59,0.00,,,0.00,weatherlink.com 1.10,2013-05-24 18:44:00,
2013-05-24 12:59:00,73.0,56.0,25.75,SSW,207,10.0,16.0,55,0.00,,,0.00,weatherlink.com 1.10,2013-05-24 18:59:00,
2013-05-24 13:14:00,73.8,57.0,25.75,SSE,156,11.0,17.0,55,0.00,,,0.00,weatherlink.com 1.10,2013-05-24 19:14:00,
2013-05-24 13:29:00,74.0,56.0,25.75,SSE,159,8.0,15.0,54,0.00,,,0.00,weatherlink.com 1.10,2013-05-24 19:29:00,
2013-05-24 13:44:00,74.5,56.0,25.74,SW,226,10.0,19.0,52,0.00,,,0.00,weatherlink.com 1.10,2013-05-24 19:44:00,
2013-05-24 13:59:00,75.7,57.0,25.74,SSE,161,8.0,21.0,52,0.00,,,0.00,weatherlink.com 1.10,2013-05-24 19:59:00,
2013-05-24 14:14:00,75.8,56.0,25.73,SSW,212,11.0,17.0,50,0.00,,,0.00,weatherlink.com 1.10,2013-05-24 20:14:00,
2013-05-24 14:29:00,77.1,58.0,25.74,SW,219,5.0,15.0,51,0.00,,,0.00,weatherlink.com 1.10,2013-05-24 20:29:00,
2013-05-24 14:44:00,76.6,57.0,25.73,SSW,193,16.0,20.0,50,0.00,,,0.00,weatherlink.com 1.10,2013-05-24 20:44:00,
2013-05-24 14:59:00,76.6,57.0,25.73,SSE,150,13.0,16.0,51,0.00,,,0.00,weatherlink.com 1.10,2013-05-24 20:59:00,
2013-05-24 15:14:00,76.6,55.0,25.73,SSE,156,10.0,18.0,48,0.00,,,0.00,weatherlink.com 1.10,2013-05-24 21:14:00,
2013-05-24 15:29:00,77.2,56.0,25.73,SE,143,7.0,17.0,49,0.00,,,0.00,weatherlink.com 1.10,2013-05-24 21:29:00,
2013-05-24 15:44:00,77.3,58.0,25.73,SSE,165,15.0,19.0,51,0.00,,,0.00,weatherlink.com 1.10,2013-05-24 21:44:00,
2013-05-24 15:59:00,77.0,57.0,25.73,SE,138,15.0,22.0,50,0.00,,,0.00,weatherlink.com 1.10,2013-05-24 21:59:00,
2013-05-24 16:14:00,76.9,58.0,25.73,SSE,162,11.0,20.0,53,0.00,,,0.00,weatherlink.com 1.10,2013-05-24 22:14:00,
2013-05-24 16:29:00,76.4,58.0,25.73,SW,215,15.0,23.0,53,0.00,,,0.00,weatherlink.com 1.10,2013-05-24 22:29:00,
2013-05-24 16:44:00,76.5,57.0,25.73,SSW,208,19.0,24.0,52,0.00,,,0.00,weatherlink.com 1.10,2013-05-24 22:44:00,
2013-05-24 16:59:00,76.6,57.0,25.73,WSW,238,14.0,23.0,51,0.00,,,0.00,weatherlink.com 1.10,2013-05-24 22:59:00,
2013-05-24 17:15:00,76.3,57.0,25.73,SSE,148,14.0,22.0,52,0.00,,,0.00,weatherlink.com 1.10,2013-05-24 23:15:00,
2013-05-24 17:29:00,76.0,57.0,25.73,SW,215,12.0,23.0,52,0.00,,,0.00,weatherlink.com 1.10,2013-05-24 23:29:00,
2013-05-24 17:44:00,75.3,57.0,25.72,SSE,166,15.0,22.0,53,0.00,,,0.00,weatherlink.com 1.10,2013-05-24 23:44:00,
2013-05-24 17:59:00,75.4,56.0,25.72,SE,145,13.0,18.0,52,0.00,,,0.00,weatherlink.com 1.10,2013-05-24 23:59:00,
2013-05-24 18:14:00,75.2,56.0,25.71,South,181,11.0,18.0,52,0.00,,,0.00,weatherlink.com 1.10,2013-05-25 00:14:00,
2013-05-24 18:29:00,74.9,56.0,25.73,SE,145,13.0,16.0,53,0.00,,,0.00,weatherlink.com 1.10,2013-05-25 00:29:00,
2013-05-24 18:44:00,74.4,56.0,25.72,SW,223,12.0,17.0,52,0.00,,,0.00,weatherlink.com 1.10,2013-05-25 00:44:00,
2013-05-24 18:59:00,74.0,57.0,25.71,SSE,162,6.0,10.0,55,0.00,,,0.00,weatherlink.com 1.10,2013-05-25 00:59:00,
2013-05-24 19:14:00,73.4,56.0,25.71,South,176,5.0,8.0,55,0.00,,,0.00,weatherlink.com 1.10,2013-05-25 01:14:00,
2013-05-24 19:29:00,71.7,56.0,25.72,SSE,162,6.0,12.0,58,0.00,,,0.00,weatherlink.com 1.10,2013-05-25 01:29:00,
2013-05-24 19:44:00,69.9,56.0,25.73,SE,143,8.0,11.0,61,0.00,,,0.00,weatherlink.com 1.10,2013-05-25 01:44:00,
2013-05-24 19:59:00,68.6,55.0,25.73,SSE,150,9.0,11.0,62,0.00,,,0.00,weatherlink.com 1.10,2013-05-25 01:59:00,
2013-05-24 20:14:00,66.9,54.0,25.73,SSE,162,6.0,8.0,64,0.00,,,0.00,weatherlink.com 1.10,2013-05-25 02:14:00,
2013-05-24 20:29:00,65.2,53.0,25.73,SSE,165,3.0,6.0,66,0.00,,,0.00,weatherlink.com 1.10,2013-05-25 02:29:00,
2013-05-24 20:44:00,64.1,53.0,25.74,SSE,161,3.0,4.0,68,0.00,,,0.00,weatherlink.com 1.10,2013-05-25 02:44:00,
2013-05-24 20:59:00,63.9,53.0,25.74,South,183,4.0,6.0,67,0.00,,,0.00,weatherlink.com 1.10,2013-05-25 02:59:00,
2013-05-24 21:14:00,63.0,52.0,25.75,SE,142,5.0,7.0,68,0.00,,,0.00,weatherlink.com 1.10,2013-05-25 03:14:00,
2013-05-24 21:29:00,62.6,53.0,25.75,SSE,156,4.0,6.0,70,0.00,,,0.00,weatherlink.com 1.10,2013-05-25 03:29:00,
2013-05-24 21:44:00,62.8,52.0,25.76,SSE,150,2.0,4.0,69,0.00,,,0.00,weatherlink.com 1.10,2013-05-25 03:44:00,
2013-05-24 21:59:00,62.0,52.0,25.76,ESE,123,3.0,3.0,71,0.00,,,0.00,weatherlink.com 1.10,2013-05-25 03:59:00,
2013-05-24 22:14:00,61.9,53.0,25.75,SE,142,4.0,5.0,72,0.00,,,0.00,weatherlink.com 1.10,2013-05-25 04:14:00,
2013-05-24 22:29:00,61.8,53.0,25.75,SE,129,2.0,4.0,73,0.00,,,0.00,weatherlink.com 1.10,2013-05-25 04:29:00,
2013-05-24 22:44:00,61.5,54.0,25.74,East,86,3.0,4.0,76,0.00,,,0.00,weatherlink.com 1.10,2013-05-25 04:44:00,
2013-05-24 22:59:00,61.4,55.0,25.74,SE,131,6.0,7.0,78,0.00,,,0.00,weatherlink.com 1.10,2013-05-25 04:59:00,
2013-05-24 23:14:00,61.1,55.0,25.74,SE,139,4.0,7.0,80,0.00,,,0.00,weatherlink.com 1.10,2013-05-25 05:14:00,
2013-05-24 23:30:00,60.0,55.0,25.74,SE,142,3.0,7.0,83,0.00,,,0.00,weatherlink.com 1.10,2013-05-25 05:30:00,
2013-05-24 23:45:00,60.1,55.0,25.73,ESE,112,1.0,4.0,83,0.00,,,0.00,weatherlink.com 1.10,2013-05-25 05:45:00,
2013-05-24 23:59:00,59.9,55.0,25.73,East,98,3.0,3.0,85,0.00,,,0.00,weatherlink.com 1.10,2013-05-25 05:59:00,